createdAt,value
2018-02-19T00:00:46.539Z,65.06
2018-02-19T00:03:14.878Z,65.11
2018-02-19T00:05:43.191Z,65.18
2018-02-19T00:08:11.524Z,65.10
2018-02-19T00:10:39.920Z,65.04
2018-02-19T00:13:09.036Z,65.15
2018-02-19T00:15:37.342Z,65.38
2018-02-19T00:18:05.699Z,65.72
2018-02-19T00:20:34.094Z,65.91
2018-02-19T00:23:02.402Z,66.24
2018-02-19T00:25:31.528Z,66.38
2018-02-19T00:27:59.896Z,66.56
2018-02-19T00:30:28.221Z,66.62
2018-02-19T00:32:56.541Z,66.71
2018-02-19T00:35:24.882Z,66.61
2018-02-19T00:37:53.218Z,66.73
2018-02-19T00:40:21.546Z,66.65
2018-02-19T00:42:49.881Z,66.46
2018-02-19T00:45:18.237Z,66.49
2018-02-19T00:47:46.953Z,66.60
2018-02-19T00:50:15.293Z,67.05
2018-02-19T00:52:43.613Z,67.01
2018-02-19T00:55:11.988Z,67.17
2018-02-19T00:57:40.282Z,67.60
2018-02-19T01:00:08.806Z,67.62
2018-02-19T01:02:37.145Z,67.67
2018-02-19T01:05:05.475Z,67.83
2018-02-19T01:07:33.851Z,68.04
2018-02-19T01:10:02.156Z,68.33
2018-02-19T01:12:30.503Z,68.42
2018-02-19T01:14:58.867Z,68.95
2018-02-19T01:17:27.262Z,69.44
2018-02-19T01:19:55.569Z,69.04
2018-02-19T01:22:23.906Z,68.98
2018-02-19T01:24:52.246Z,69.07
2018-02-19T01:27:21.351Z,69.69
2018-02-19T01:29:50.484Z,69.64
2018-02-19T01:32:18.838Z,69.79
2018-02-19T01:34:47.159Z,69.72
2018-02-19T01:37:15.487Z,69.72
2018-02-19T01:39:44.605Z,69.66
2018-02-19T01:42:12.929Z,69.58
2018-02-19T01:44:41.304Z,70.12
2018-02-19T01:47:09.635Z,70.24
2018-02-19T01:49:37.979Z,70.44
2018-02-19T01:52:07.115Z,69.89
2018-02-19T01:54:35.454Z,69.60
2018-02-19T01:57:04.566Z,69.33
2018-02-19T01:59:33.650Z,69.27
2018-02-19T02:02:02.765Z,69.37
2018-02-19T02:04:31.131Z,69.48
2018-02-19T02:07:00.623Z,69.60
2018-02-19T02:09:29.701Z,69.77
2018-02-19T02:11:58.058Z,70.00
2018-02-19T02:14:26.372Z,70.14
2018-02-19T02:16:55.492Z,70.15
2018-02-19T02:19:23.841Z,70.21
2018-02-19T02:21:52.968Z,70.40
2018-02-19T02:24:21.342Z,70.57
2018-02-19T02:26:49.697Z,71.26
2018-02-19T02:29:18.047Z,71.66
2018-02-19T02:31:46.358Z,71.75
2018-02-19T02:34:15.494Z,71.93
2018-02-19T02:36:43.840Z,72.07
2018-02-19T02:39:12.574Z,72.41
2018-02-19T02:41:40.889Z,72.63
2018-02-19T02:44:10.025Z,72.72
2018-02-19T02:46:39.899Z,72.84
2018-02-19T02:49:08.996Z,73.13
2018-02-19T02:51:38.116Z,73.41
2018-02-19T02:54:06.441Z,73.31
2018-02-19T02:56:34.808Z,73.66
2018-02-19T02:59:03.128Z,74.38
2018-02-19T03:01:32.231Z,74.01
2018-02-19T03:04:00.591Z,73.96
2018-02-19T03:06:29.795Z,74.29
2018-02-19T03:08:59.145Z,74.12
2018-02-19T03:11:27.483Z,74.21
2018-02-19T03:13:55.816Z,74.19
2018-02-19T03:16:24.894Z,74.12
2018-02-19T03:18:53.259Z,74.04
2018-02-19T03:21:21.650Z,73.93
2018-02-19T03:23:50.031Z,73.50
2018-02-19T03:26:18.397Z,73.21
2018-02-19T03:28:46.732Z,73.28
2018-02-19T03:31:15.872Z,72.67
2018-02-19T03:33:44.246Z,72.40
2018-02-19T03:36:12.586Z,71.98
2018-02-19T03:38:41.679Z,71.65
2018-02-19T03:41:10.811Z,71.37
2018-02-19T03:43:39.125Z,71.12
2018-02-19T03:46:07.479Z,71.00
2018-02-19T03:48:35.790Z,70.84
2018-02-19T03:51:04.134Z,70.60
2018-02-19T03:53:32.486Z,70.30
2018-02-19T03:56:00.805Z,69.98
2018-02-19T03:58:29.172Z,69.80
2018-02-19T04:00:57.902Z,69.61
2018-02-19T04:03:27.003Z,69.46
2018-02-19T04:05:55.347Z,69.27
2018-02-19T04:08:23.668Z,69.22
2018-02-19T04:10:52.033Z,69.09
2018-02-19T04:13:21.164Z,69.00
2018-02-19T04:15:49.607Z,68.86
2018-02-19T04:18:20.278Z,68.79
2018-02-19T04:20:48.759Z,68.65
2018-02-19T04:23:17.110Z,68.58
2018-02-19T04:25:45.432Z,68.48
2018-02-19T04:28:13.833Z,68.23
2018-02-19T04:30:42.143Z,68.43
2018-02-19T04:33:10.494Z,68.52
2018-02-19T04:35:38.796Z,68.63
2018-02-19T04:38:07.105Z,68.46
2018-02-19T04:40:35.449Z,68.30
2018-02-19T04:43:06.394Z,68.37
2018-02-19T04:45:36.549Z,68.51
2018-02-19T04:48:04.860Z,68.81
2018-02-19T04:50:33.189Z,68.85
2018-02-19T04:53:01.529Z,69.36
2018-02-19T04:55:30.645Z,69.92
2018-02-19T04:57:59.017Z,70.48
2018-02-19T05:00:27.359Z,70.49
2018-02-19T05:02:55.668Z,70.55
2018-02-19T05:05:24.098Z,70.95
2018-02-19T05:07:52.523Z,71.41
2018-02-19T05:10:22.062Z,71.45
2018-02-19T05:12:50.413Z,71.48
2018-02-19T05:15:18.737Z,71.46
2018-02-19T05:17:47.108Z,71.60
2018-02-19T05:20:15.427Z,71.73
2018-02-19T05:22:44.565Z,71.78
2018-02-19T05:25:12.893Z,72.37
2018-02-19T05:27:42.009Z,72.31
2018-02-19T05:30:11.133Z,72.29
2018-02-19T05:32:39.462Z,72.64
2018-02-19T05:35:08.551Z,72.47
2018-02-19T05:37:37.027Z,72.41
2018-02-19T05:40:05.405Z,72.80
2018-02-19T05:42:33.715Z,72.55
2018-02-19T05:45:03.218Z,72.46
2018-02-19T05:47:31.547Z,72.54
2018-02-19T05:49:59.901Z,72.31
2018-02-19T05:52:28.261Z,72.22
2018-02-19T05:54:56.634Z,72.33
2018-02-19T05:57:24.951Z,72.17
2018-02-19T05:59:53.309Z,72.23
2018-02-19T06:02:21.665Z,72.07
2018-02-19T06:04:50.409Z,71.85
2018-02-19T06:07:18.887Z,71.67
2018-02-19T06:09:47.221Z,71.74
2018-02-19T06:12:15.554Z,71.65
2018-02-19T06:14:43.908Z,71.70
2018-02-19T06:17:12.259Z,71.92
2018-02-19T06:19:40.617Z,71.84
2018-02-19T06:22:08.992Z,71.86
2018-02-19T06:24:37.328Z,71.80
2018-02-19T06:27:05.658Z,71.69
2018-02-19T06:29:34.407Z,71.71
2018-02-19T06:32:02.784Z,71.67
2018-02-19T06:34:31.099Z,71.53
2018-02-19T06:36:59.476Z,71.55
2018-02-19T06:39:27.817Z,71.61
2018-02-19T06:41:56.949Z,71.75
2018-02-19T06:44:26.436Z,71.77
2018-02-19T06:46:55.556Z,71.72
2018-02-19T06:49:24.671Z,71.67
2018-02-19T06:51:53.044Z,71.63
2018-02-19T06:54:21.399Z,71.54
2018-02-19T06:56:50.840Z,71.50
2018-02-19T06:59:19.212Z,71.38
2018-02-19T07:01:47.519Z,71.21
2018-02-19T07:04:15.876Z,71.08
2018-02-19T07:06:44.257Z,70.96
2018-02-19T07:09:12.591Z,70.86
2018-02-19T07:11:40.917Z,70.71
2018-02-19T07:14:09.272Z,70.61
2018-02-19T07:16:37.609Z,70.58
2018-02-19T07:19:07.247Z,70.50
2018-02-19T07:21:35.633Z,70.30
2018-02-19T07:24:03.956Z,70.13
2018-02-19T07:26:32.280Z,69.92
2018-02-19T07:29:00.630Z,69.61
2018-02-19T07:31:28.987Z,69.24
2018-02-19T07:33:57.344Z,68.78
2018-02-19T07:36:26.103Z,68.04
2018-02-19T07:38:54.426Z,67.43
2018-02-19T07:41:23.542Z,66.79
2018-02-19T07:43:51.888Z,66.25
2018-02-19T07:46:20.240Z,65.54
2018-02-19T07:48:48.574Z,65.13
2018-02-19T07:51:17.693Z,64.61
2018-02-19T07:53:46.031Z,63.98
2018-02-19T07:56:14.412Z,63.40
2018-02-19T07:58:43.528Z,63.11
2018-02-19T08:01:11.880Z,63.24
2018-02-19T08:03:41.054Z,63.23
2018-02-19T08:06:09.412Z,63.33
2018-02-19T08:08:37.784Z,63.38
2018-02-19T08:11:06.133Z,63.53
2018-02-19T08:13:34.442Z,63.54
2018-02-19T08:16:02.790Z,63.60
2018-02-19T08:18:31.098Z,63.81
2018-02-19T08:20:59.444Z,63.90
2018-02-19T08:23:27.752Z,63.99
2018-02-19T08:25:56.091Z,63.91
2018-02-19T08:28:25.238Z,63.69
2018-02-19T08:30:53.551Z,63.40
2018-02-19T08:33:22.303Z,63.39
2018-02-19T08:35:50.644Z,63.13
2018-02-19T08:38:19.446Z,62.80
2018-02-19T08:40:47.794Z,62.59
2018-02-19T08:43:16.534Z,62.18
2018-02-19T08:45:45.244Z,61.91
2018-02-19T08:48:13.608Z,61.02
2018-02-19T08:50:41.979Z,60.83
2018-02-19T08:53:10.345Z,60.23
2018-02-19T08:55:38.697Z,59.79
2018-02-19T08:58:07.056Z,59.43
2018-02-19T09:00:36.144Z,59.08
2018-02-19T09:03:05.263Z,59.04
2018-02-19T09:05:33.626Z,58.30
2018-02-19T09:08:01.912Z,57.77
2018-02-19T09:10:30.264Z,58.09
2018-02-19T09:12:59.856Z,57.76
2018-02-19T09:15:28.220Z,57.26
2018-02-19T09:17:56.573Z,57.00
2018-02-19T09:20:24.924Z,56.42
2018-02-19T09:22:53.290Z,55.87
2018-02-19T09:25:22.407Z,55.46
2018-02-19T09:27:50.726Z,54.54
2018-02-19T09:30:19.079Z,53.70
2018-02-19T09:32:47.407Z,54.14
2018-02-19T09:35:16.510Z,53.70
2018-02-19T09:37:45.635Z,53.20
2018-02-19T09:40:14.013Z,53.30
2018-02-19T09:42:42.363Z,52.70
2018-02-19T09:45:11.447Z,52.44
2018-02-19T09:47:40.584Z,51.71
2018-02-19T09:50:08.892Z,51.43
2018-02-19T09:52:37.283Z,52.01
2018-02-19T09:55:05.624Z,51.17
2018-02-19T09:57:33.951Z,50.24
2018-02-19T10:00:03.032Z,51.14
2018-02-19T10:02:31.383Z,51.08
2018-02-19T10:04:59.736Z,49.63
2018-02-19T10:07:28.047Z,49.95
2018-02-19T10:09:56.404Z,48.94
2018-02-19T10:12:24.716Z,47.83
2018-02-19T10:14:53.077Z,47.84
2018-02-19T10:17:21.451Z,48.22
2018-02-19T10:19:49.779Z,48.04
2018-02-19T10:22:18.119Z,47.67
2018-02-19T10:24:46.424Z,46.71
2018-02-19T10:27:14.785Z,46.55
2018-02-19T10:29:43.126Z,45.91
2018-02-19T10:32:12.211Z,45.20
2018-02-19T10:34:40.570Z,45.62
2018-02-19T10:37:08.935Z,44.44
2018-02-19T10:39:38.106Z,43.87
2018-02-19T10:42:06.401Z,45.10
2018-02-19T10:44:35.516Z,44.81
2018-02-19T10:47:03.830Z,44.39
2018-02-19T10:49:32.187Z,43.97
2018-02-19T10:52:00.546Z,44.66
2018-02-19T10:54:28.891Z,43.89
2018-02-19T10:56:57.247Z,44.41
2018-02-19T10:59:25.556Z,43.95
2018-02-19T11:01:53.895Z,44.64
2018-02-19T11:04:22.211Z,45.70
2018-02-19T11:06:51.326Z,45.34
2018-02-19T11:09:19.682Z,44.71
2018-02-19T11:11:48.782Z,44.03
2018-02-19T11:14:17.889Z,43.92
2018-02-19T11:16:46.265Z,44.67
2018-02-19T11:19:15.355Z,43.67
2018-02-19T11:21:44.487Z,43.36
2018-02-19T11:24:12.841Z,43.22
2018-02-19T11:26:41.915Z,43.71
2018-02-19T11:29:11.039Z,43.00
2018-02-19T11:31:39.385Z,45.20
2018-02-19T11:34:07.707Z,45.13
2018-02-19T11:36:36.007Z,44.89
2018-02-19T11:39:04.357Z,44.02
2018-02-19T11:41:32.675Z,43.32
2018-02-19T11:44:01.070Z,42.37
2018-02-19T11:46:29.376Z,43.29
2018-02-19T11:48:57.702Z,42.77
2018-02-19T11:51:26.055Z,42.88
2018-02-19T11:53:54.414Z,42.23
2018-02-19T11:56:22.782Z,42.30
2018-02-19T11:58:51.092Z,41.73
2018-02-19T12:01:19.423Z,42.29
2018-02-19T12:03:48.594Z,42.41
2018-02-19T12:06:16.914Z,42.14
2018-02-19T12:08:45.332Z,43.05
2018-02-19T12:11:13.618Z,43.43
2018-02-19T12:13:41.974Z,44.13
2018-02-19T12:16:10.311Z,44.06
2018-02-19T12:18:39.465Z,44.61
2018-02-19T12:21:07.813Z,44.86
2018-02-19T12:23:36.149Z,45.16
2018-02-19T12:26:05.266Z,44.92
2018-02-19T12:28:33.582Z,45.00
2018-02-19T12:31:01.956Z,45.04
2018-02-19T12:33:30.282Z,44.30
2018-02-19T12:35:59.396Z,44.02
2018-02-19T12:38:27.716Z,44.08
2018-02-19T12:40:56.066Z,43.75
2018-02-19T12:43:24.399Z,44.09
2018-02-19T12:45:52.765Z,43.93
2018-02-19T12:48:21.080Z,44.17
2018-02-19T12:50:49.466Z,44.23
2018-02-19T12:53:17.775Z,44.53
2018-02-19T12:55:46.105Z,44.52
2018-02-19T12:58:15.298Z,44.63
2018-02-19T13:00:44.384Z,43.87
2018-02-19T13:03:13.503Z,44.17
2018-02-19T13:05:42.465Z,44.08
2018-02-19T13:08:10.820Z,44.61
2018-02-19T13:10:39.145Z,44.78
2018-02-19T13:13:07.494Z,45.34
2018-02-19T13:15:35.812Z,45.26
2018-02-19T13:18:04.174Z,44.63
2018-02-19T13:20:32.488Z,45.11
2018-02-19T13:23:00.836Z,44.43
2018-02-19T13:25:29.186Z,44.58
2018-02-19T13:27:58.322Z,44.59
2018-02-19T13:30:26.682Z,43.73
2018-02-19T13:32:55.000Z,43.88
2018-02-19T13:35:23.444Z,43.62
2018-02-19T13:37:51.775Z,43.54
2018-02-19T13:40:20.138Z,43.80
2018-02-19T13:42:48.516Z,43.47
2018-02-19T13:45:16.842Z,43.23
2018-02-19T13:47:45.972Z,43.33
2018-02-19T13:50:14.328Z,42.94
2018-02-19T13:52:42.690Z,42.63
2018-02-19T13:55:11.780Z,42.63
2018-02-19T13:57:40.173Z,42.86
2018-02-19T14:00:09.242Z,43.00
2018-02-19T14:02:37.547Z,42.90
2018-02-19T14:05:07.542Z,43.04
2018-02-19T14:07:35.852Z,43.12
2018-02-19T14:10:04.448Z,43.95
2018-02-19T14:12:33.198Z,43.41
2018-02-19T14:15:01.907Z,43.69
2018-02-19T14:17:30.225Z,44.08
2018-02-19T14:19:58.617Z,43.56
2018-02-19T14:22:26.987Z,44.72
2018-02-19T14:24:55.715Z,46.04
2018-02-19T14:27:25.956Z,44.73
2018-02-19T14:29:54.285Z,44.41
2018-02-19T14:32:22.616Z,44.44
2018-02-19T14:34:51.192Z,44.26
2018-02-19T14:37:19.516Z,44.37
2018-02-19T14:39:47.868Z,44.02
2018-02-19T14:42:16.177Z,43.97
2018-02-19T14:44:44.533Z,44.13
2018-02-19T14:47:12.853Z,43.77
2018-02-19T14:49:41.999Z,43.47
2018-02-19T14:52:10.362Z,43.85
2018-02-19T14:54:41.322Z,43.96
2018-02-19T14:57:10.484Z,44.78
2018-02-19T14:59:39.683Z,45.02
2018-02-19T15:02:08.009Z,45.14
2018-02-19T15:04:36.488Z,45.83
2018-02-19T15:07:04.820Z,46.10
2018-02-19T15:09:33.161Z,46.08
2018-02-19T15:12:02.310Z,46.28
2018-02-19T15:14:30.687Z,46.51
2018-02-19T15:16:59.044Z,46.80
2018-02-19T15:19:28.284Z,46.79
2018-02-19T15:21:56.674Z,47.21
2018-02-19T15:24:25.040Z,47.33
2018-02-19T15:26:53.393Z,47.47
2018-02-19T15:29:21.760Z,47.76
2018-02-19T15:31:50.136Z,48.05
2018-02-19T15:34:18.523Z,48.55
2018-02-19T15:36:46.896Z,48.89
2018-02-19T15:39:15.210Z,49.30
2018-02-19T15:41:43.519Z,49.92
2018-02-19T15:44:12.649Z,50.15
2018-02-19T15:46:40.988Z,50.51
2018-02-19T15:49:10.124Z,50.84
2018-02-19T15:51:39.103Z,50.98
2018-02-19T15:54:07.497Z,51.51
2018-02-19T15:56:35.872Z,51.71
2018-02-19T15:59:04.190Z,52.03
2018-02-19T16:01:32.552Z,52.24
2018-02-19T16:04:00.856Z,52.33
2018-02-19T16:06:30.812Z,53.25
2018-02-19T16:08:59.444Z,53.68
2018-02-19T16:11:27.788Z,53.70
2018-02-19T16:13:56.145Z,53.84
2018-02-19T16:16:24.527Z,53.76
2018-02-19T16:18:52.879Z,53.84
2018-02-19T16:21:22.372Z,54.01
2018-02-19T16:23:51.514Z,54.08
2018-02-19T16:26:19.818Z,54.23
2018-02-19T16:28:48.121Z,54.39
2018-02-19T16:31:17.265Z,55.06
2018-02-19T16:33:46.271Z,54.95
2018-02-19T16:36:15.385Z,54.84
2018-02-19T16:38:45.254Z,54.79
2018-02-19T16:41:13.660Z,54.79
2018-02-19T16:43:42.034Z,54.87
2018-02-19T16:46:10.379Z,55.04
2018-02-19T16:48:38.737Z,55.22
2018-02-19T16:51:07.079Z,55.30
2018-02-19T16:53:35.436Z,55.34
2018-02-19T16:56:04.537Z,55.43
2018-02-19T16:58:32.916Z,55.51
2018-02-19T17:01:01.397Z,55.84
2018-02-19T17:03:29.775Z,55.89
2018-02-19T17:05:58.170Z,56.00
2018-02-19T17:08:26.956Z,56.10
2018-02-19T17:10:55.323Z,56.25
2018-02-19T17:13:23.652Z,56.42
2018-02-19T17:15:53.341Z,56.95
2018-02-19T17:18:22.864Z,57.21
2018-02-19T17:20:52.607Z,57.46
2018-02-19T17:23:20.969Z,57.59
2018-02-19T17:25:49.303Z,57.78
2018-02-19T17:28:17.787Z,58.26
2018-02-19T17:30:46.091Z,58.27
2018-02-19T17:33:15.222Z,58.05
2018-02-19T17:35:43.541Z,57.91
2018-02-19T17:38:12.731Z,57.66
2018-02-19T17:40:41.046Z,57.78
2018-02-19T17:43:10.529Z,57.91
2018-02-19T17:45:39.656Z,58.31
2018-02-19T17:48:07.980Z,58.56
2018-02-19T17:50:37.738Z,58.45
2018-02-19T17:53:06.106Z,58.25
2018-02-19T17:55:36.376Z,57.95
2018-02-19T17:58:04.708Z,58.37
2018-02-19T18:00:33.952Z,58.79
2018-02-19T18:03:02.292Z,58.72
2018-02-19T18:05:31.629Z,58.44
2018-02-19T18:08:00.634Z,58.39
2018-02-19T18:10:29.012Z,58.13
2018-02-19T18:12:57.728Z,58.53
2018-02-19T18:15:27.507Z,58.75
2018-02-19T18:17:55.879Z,58.83
2018-02-19T18:20:24.253Z,58.85
2018-02-19T18:22:52.613Z,59.13
2018-02-19T18:25:20.981Z,59.12
2018-02-19T18:27:49.347Z,59.00
2018-02-19T18:30:17.678Z,59.28
2018-02-19T18:32:46.040Z,59.57
2018-02-19T18:35:14.455Z,59.65
2018-02-19T18:37:42.920Z,60.28
2018-02-19T18:40:11.251Z,60.17
2018-02-19T18:42:39.561Z,60.28
2018-02-19T18:45:07.991Z,60.59
2018-02-19T18:47:37.225Z,60.64
2018-02-19T18:50:06.491Z,60.80
2018-02-19T18:52:35.087Z,60.89
2018-02-19T18:55:03.417Z,61.18
2018-02-19T18:57:32.485Z,61.37
2018-02-19T19:00:01.738Z,61.44
2018-02-19T19:02:30.728Z,61.38
2018-02-19T19:04:59.058Z,61.51
2018-02-19T19:07:45.363Z,61.57
2018-02-19T19:10:31.203Z,61.66
2018-02-19T19:13:00.095Z,62.03
2018-02-19T19:15:28.431Z,62.13
2018-02-19T19:17:56.837Z,62.13
2018-02-19T19:20:26.050Z,62.06
2018-02-19T19:22:54.392Z,62.02
2018-02-19T19:25:23.512Z,62.10
2018-02-19T19:27:52.426Z,62.23
2018-02-19T19:30:20.820Z,62.16
2018-02-19T19:32:50.127Z,62.03
2018-02-19T19:35:18.607Z,61.95
2018-02-19T19:37:48.284Z,61.76
2018-02-19T19:40:17.456Z,61.81
2018-02-19T19:42:47.032Z,61.97
2018-02-19T19:45:15.375Z,62.18
2018-02-19T19:47:45.261Z,62.35
2018-02-19T19:50:14.487Z,62.57
2018-02-19T19:52:43.141Z,62.78
2018-02-19T19:55:11.494Z,63.07
2018-02-19T19:57:40.715Z,62.99
2018-02-19T20:00:12.368Z,63.27
2018-02-19T20:02:42.678Z,63.38
2018-02-19T20:05:11.121Z,63.33
2018-02-19T20:07:39.444Z,63.59
2018-02-19T20:10:08.658Z,63.86
2018-02-19T20:12:37.032Z,63.93
2018-02-19T20:15:07.101Z,64.25
2018-02-19T20:17:35.426Z,64.55
2018-02-19T20:20:03.806Z,64.70
2018-02-19T20:22:32.921Z,64.81
2018-02-19T20:25:01.415Z,65.17
2018-02-19T20:27:29.768Z,65.46
2018-02-19T20:29:59.153Z,65.56
2018-02-19T20:32:28.791Z,65.74
2018-02-19T20:35:03.486Z,66.01
2018-02-19T20:37:33.249Z,66.29
2018-02-19T20:40:01.582Z,66.67
2018-02-19T20:42:30.532Z,66.97
2018-02-19T20:45:00.591Z,67.11
2018-02-19T20:47:29.438Z,67.25
2018-02-19T20:49:58.616Z,67.75
2018-02-19T20:52:27.794Z,67.76
2018-02-19T20:54:57.691Z,67.64
2018-02-19T20:57:26.609Z,67.35
2018-02-19T20:59:55.069Z,67.42
2018-02-19T21:02:24.962Z,67.49
2018-02-19T21:04:54.818Z,67.91
2018-02-19T21:07:23.168Z,68.18
2018-02-19T21:09:51.517Z,68.45
2018-02-19T21:12:22.055Z,69.00
2018-02-19T21:14:51.225Z,68.96
2018-02-19T21:17:19.580Z,69.02
2018-02-19T21:19:48.912Z,68.88
2018-02-19T21:22:17.281Z,68.89
2018-02-19T21:24:46.014Z,69.19
2018-02-19T21:27:14.497Z,69.42
2018-02-19T21:29:44.060Z,69.35
2018-02-19T21:32:13.132Z,69.31
2018-02-19T21:34:41.465Z,69.71
2018-02-19T21:37:10.588Z,69.67
2018-02-19T21:39:38.982Z,69.70
2018-02-19T21:42:07.310Z,69.70
2018-02-19T21:44:36.430Z,69.81
2018-02-19T21:47:04.817Z,71.27
2018-02-19T21:49:33.165Z,70.34
2018-02-19T21:52:01.590Z,70.31
2018-02-19T21:54:30.384Z,70.06
2018-02-19T21:56:58.751Z,69.83
2018-02-19T21:59:27.500Z,69.92
2018-02-19T22:01:55.846Z,70.03
2018-02-19T22:04:24.616Z,70.01
2018-02-19T22:06:53.034Z,69.77
2018-02-19T22:09:22.200Z,69.67
2018-02-19T22:11:50.533Z,69.56
2018-02-19T22:14:18.898Z,69.64
2018-02-19T22:16:47.235Z,69.50
2018-02-19T22:19:15.592Z,69.49
2018-02-19T22:21:43.933Z,69.47
2018-02-19T22:24:13.440Z,69.26
2018-02-19T22:26:41.777Z,69.63
2018-02-19T22:29:11.884Z,69.70
2018-02-19T22:31:40.652Z,70.17
2018-02-19T22:34:09.022Z,70.34
2018-02-19T22:36:37.383Z,70.52
2018-02-19T22:39:05.745Z,70.69
2018-02-19T22:41:34.125Z,70.94
2018-02-19T22:44:03.251Z,71.14
2018-02-19T22:46:31.618Z,71.82
2018-02-19T22:48:59.947Z,71.80
2018-02-19T22:51:29.081Z,72.07
2018-02-19T22:53:57.428Z,72.32
2018-02-19T22:56:27.496Z,72.50
2018-02-19T22:58:57.021Z,72.78
2018-02-19T23:01:25.416Z,73.00
2018-02-19T23:03:53.741Z,73.22
2018-02-19T23:06:22.895Z,73.34
2018-02-19T23:08:51.225Z,73.29
2018-02-19T23:11:19.633Z,73.43
2018-02-19T23:13:48.014Z,73.51
2018-02-19T23:16:16.357Z,73.55
2018-02-19T23:18:45.521Z,73.62
2018-02-19T23:21:14.661Z,73.95
2018-02-19T23:23:43.433Z,74.10
2018-02-19T23:26:12.570Z,74.14
2018-02-19T23:28:40.911Z,73.99
2018-02-19T23:31:09.285Z,73.96
2018-02-19T23:33:37.611Z,73.44
2018-02-19T23:36:05.977Z,73.14
2018-02-19T23:38:34.312Z,73.31
2018-02-19T23:41:02.678Z,73.08
2018-02-19T23:43:31.904Z,73.13
2018-02-19T23:46:00.616Z,73.15
2018-02-19T23:48:29.360Z,73.35
2018-02-19T23:50:57.729Z,73.31
2018-02-19T23:53:26.874Z,73.39
2018-02-19T23:55:56.267Z,73.52
2018-02-19T23:58:24.637Z,73.61
